Bunker Hill Village, Texas
Current Conditions -  °F | °C
As of 5:15 PM on Wednesday 26 Nov 2014 (Local Time) from KMCJ Reporting Station
Clear Clear  
Wind Chill: 66°   Ceiling: Unl
Heat Index: 66°   Visibility: 10mi
Dew Point: 37°   Wind: 3mph
Humidity: 35%   Direction: 220°SW
Pressure: 30.18"   Gusts: NA
Location:  29.7698°N, 95.5164°W
Report Text: KMCJ 262315Z AUTO 22003KT 10SM CLR 19/03 A3018 RMK AO1
Loading
Personal Weather Stations






























Interactive Weather Map New forecast layout! Learn more

10-Day Weather Forecast

Advertisements
Track Severe Weather on mobile